sensor_id;sensor_type;location;lat;lon;timestamp;temperature;humidity
2226;DHT22;1119;48.288;8.726;2023-05-17T00:01:26;6.80;99.90
2226;DHT22;1119;48.288;8.726;2023-05-17T00:04:14;6.70;99.90
2226;DHT22;1119;48.288;8.726;2023-05-17T00:07:03;6.60;99.90
2226;DHT22;1119;48.288;8.726;2023-05-17T00:09:50;6.60;99.90
2226;DHT22;1119;48.288;8.726;2023-05-17T00:12:39;6.50;99.90
2226;DHT22;1119;48.288;8.726;2023-05-17T00:15:27;6.50;99.90
2226;DHT22;1119;48.288;8.726;2023-05-17T00:18:15;6.50;99.90
2226;DHT22;1119;48.288;8.726;2023-05-17T00:21:02;6.50;99.90
2226;DHT22;1119;48.288;8.726;2023-05-17T00:23:50;6.70;99.90
2226;DHT22;1119;48.288;8.726;2023-05-17T00:26:38;6.60;99.90
2226;DHT22;1119;48.288;8.726;2023-05-17T00:29:27;6.60;99.90
2226;DHT22;1119;48.288;8.726;2023-05-17T00:32:15;6.80;99.90
2226;DHT22;1119;48.288;8.726;2023-05-17T00:35:03;6.60;99.90
2226;DHT22;1119;48.288;8.726;2023-05-17T00:37:52;6.60;99.90
2226;DHT22;1119;48.288;8.726;2023-05-17T00:40:40;6.70;99.90
2226;DHT22;1119;48.288;8.726;2023-05-17T00:43:28;6.70;99.90
2226;DHT22;1119;48.288;8.726;2023-05-17T00:46:17;6.80;99.90
2226;DHT22;1119;48.288;8.726;2023-05-17T00:49:04;6.90;99.90
2226;DHT22;1119;48.288;8.726;2023-05-17T00:51:55;6.90;99.90
2226;DHT22;1119;48.288;8.726;2023-05-17T00:54:43;7.00;99.90
2226;DHT22;1119;48.288;8.726;2023-05-17T00:57:31;7.00;99.90
2226;DHT22;1119;48.288;8.726;2023-05-17T01:00:21;7.10;99.90
2226;DHT22;1119;48.288;8.726;2023-05-17T01:03:10;7.00;99.90
2226;DHT22;1119;48.288;8.726;2023-05-17T01:05:58;7.00;99.90
2226;DHT22;1119;48.288;8.726;2023-05-17T01:08:47;7.00;99.90
2226;DHT22;1119;48.288;8.726;2023-05-17T01:11:41;7.00;99.90
2226;DHT22;1119;48.288;8.726;2023-05-17T01:14:43;6.80;99.90
2226;DHT22;1119;48.288;8.726;2023-05-17T01:17:40;6.80;99.90
2226;DHT22;1119;48.288;8.726;2023-05-17T01:20:36;6.80;99.90
2226;DHT22;1119;48.288;8.726;2023-05-17T01:23:36;6.80;99.90
2226;DHT22;1119;48.288;8.726;2023-05-17T01:26:36;6.80;99.90
2226;DHT22;1119;48.288;8.726;2023-05-17T01:29:27;6.70;99.90
2226;DHT22;1119;48.288;8.726;2023-05-17T01:32:16;6.70;99.90
2226;DHT22;1119;48.288;8.726;2023-05-17T01:35:04;6.70;99.90
2226;DHT22;1119;48.288;8.726;2023-05-17T01:37:54;6.60;99.90
2226;DHT22;1119;48.288;8.726;2023-05-17T01:40:48;6.60;99.90
2226;DHT22;1119;48.288;8.726;2023-05-17T01:43:50;6.60;99.90
2226;DHT22;1119;48.288;8.726;2023-05-17T01:46:42;6.60;99.90
2226;DHT22;1119;48.288;8.726;2023-05-17T01:49:31;6.60;99.90
2226;DHT22;1119;48.288;8.726;2023-05-17T01:52:34;6.60;99.90
2226;DHT22;1119;48.288;8.726;2023-05-17T01:55:33;6.70;99.90
2226;DHT22;1119;48.288;8.726;2023-05-17T01:58:28;6.60;99.90
2226;DHT22;1119;48.288;8.726;2023-05-17T02:05:56;6.60;99.90
2226;DHT22;1119;48.288;8.726;2023-05-17T02:08:47;6.60;99.90
2226;DHT22;1119;48.288;8.726;2023-05-17T02:12:22;6.60;99.90
2226;DHT22;1119;48.288;8.726;2023-05-17T02:15:10;6.70;99.90
2226;DHT22;1119;48.288;8.726;2023-05-17T02:18:00;6.50;99.90
2226;DHT22;1119;48.288;8.726;2023-05-17T02:20:48;6.50;99.90
2226;DHT22;1119;48.288;8.726;2023-05-17T02:23:36;6.40;99.90
2226;DHT22;1119;48.288;8.726;2023-05-17T02:26:23;6.40;99.90
2226;DHT22;1119;48.288;8.726;2023-05-17T02:29:11;6.30;99.90
2226;DHT22;1119;48.288;8.726;2023-05-17T02:31:59;6.30;99.90
2226;DHT22;1119;48.288;8.726;2023-05-17T02:34:48;6.30;99.90
2226;DHT22;1119;48.288;8.726;2023-05-17T02:37:35;6.30;99.90
2226;DHT22;1119;48.288;8.726;2023-05-17T02:40:24;6.30;99.90
2226;DHT22;1119;48.288;8.726;2023-05-17T02:43:12;6.30;99.90
2226;DHT22;1119;48.288;8.726;2023-05-17T02:46:00;6.20;99.90
2226;DHT22;1119;48.288;8.726;2023-05-17T02:51:46;6.10;99.90
2226;DHT22;1119;48.288;8.726;2023-05-17T02:54:34;6.10;99.90
2226;DHT22;1119;48.288;8.726;2023-05-17T02:57:21;6.10;99.90
2226;DHT22;1119;48.288;8.726;2023-05-17T03:00:10;6.10;99.90
2226;DHT22;1119;48.288;8.726;2023-05-17T03:02:58;6.10;99.90
2226;DHT22;1119;48.288;8.726;2023-05-17T03:05:46;6.10;99.90
2226;DHT22;1119;48.288;8.726;2023-05-17T03:08:35;6.10;99.90
2226;DHT22;1119;48.288;8.726;2023-05-17T03:11:24;6.10;99.90
2226;DHT22;1119;48.288;8.726;2023-05-17T03:14:13;6.10;99.90
2226;DHT22;1119;48.288;8.726;2023-05-17T03:17:01;6.10;99.90
2226;DHT22;1119;48.288;8.726;2023-05-17T03:19:50;6.00;99.90
2226;DHT22;1119;48.288;8.726;2023-05-17T03:22:37;6.00;99.90
2226;DHT22;1119;48.288;8.726;2023-05-17T03:25:26;6.00;99.90
2226;DHT22;1119;48.288;8.726;2023-05-17T03:28:15;6.00;99.90
2226;DHT22;1119;48.288;8.726;2023-05-17T03:31:03;6.00;99.90
2226;DHT22;1119;48.288;8.726;2023-05-17T03:33:52;6.10;99.90
2226;DHT22;1119;48.288;8.726;2023-05-17T03:36:40;6.10;99.90
2226;DHT22;1119;48.288;8.726;2023-05-17T03:39:29;6.10;99.90
2226;DHT22;1119;48.288;8.726;2023-05-17T03:42:19;6.10;99.90
2226;DHT22;1119;48.288;8.726;2023-05-17T03:45:08;6.10;99.90
2226;DHT22;1119;48.288;8.726;2023-05-17T03:47:56;6.00;99.90
2226;DHT22;1119;48.288;8.726;2023-05-17T03:50:45;6.00;99.90
2226;DHT22;1119;48.288;8.726;2023-05-17T03:53:33;5.90;99.90
2226;DHT22;1119;48.288;8.726;2023-05-17T03:56:26;5.90;99.90
2226;DHT22;1119;48.288;8.726;2023-05-17T03:59:15;6.00;99.90
2226;DHT22;1119;48.288;8.726;2023-05-17T04:02:03;5.90;99.90
2226;DHT22;1119;48.288;8.726;2023-05-17T04:04:52;6.00;99.90
2226;DHT22;1119;48.288;8.726;2023-05-17T04:07:40;6.00;99.90
2226;DHT22;1119;48.288;8.726;2023-05-17T04:10:28;6.00;99.90
2226;DHT22;1119;48.288;8.726;2023-05-17T04:13:15;6.00;99.90
2226;DHT22;1119;48.288;8.726;2023-05-17T04:16:07;6.00;99.90
2226;DHT22;1119;48.288;8.726;2023-05-17T04:18:58;6.00;99.90
2226;DHT22;1119;48.288;8.726;2023-05-17T04:21:48;6.10;99.90
2226;DHT22;1119;48.288;8.726;2023-05-17T04:24:38;6.10;99.90
2226;DHT22;1119;48.288;8.726;2023-05-17T04:27:26;6.20;99.90
2226;DHT22;1119;48.288;8.726;2023-05-17T04:30:14;6.20;99.90
2226;DHT22;1119;48.288;8.726;2023-05-17T04:33:03;6.10;99.90
2226;DHT22;1119;48.288;8.726;2023-05-17T04:35:53;6.10;99.90
2226;DHT22;1119;48.288;8.726;2023-05-17T04:38:42;6.10;99.90
2226;DHT22;1119;48.288;8.726;2023-05-17T04:41:34;6.00;99.90
2226;DHT22;1119;48.288;8.726;2023-05-17T04:44:25;6.00;99.90
2226;DHT22;1119;48.288;8.726;2023-05-17T04:47:14;6.10;99.90
2226;DHT22;1119;48.288;8.726;2023-05-17T04:50:03;6.10;99.90
2226;DHT22;1119;48.288;8.726;2023-05-17T04:52:51;6.20;99.90
2226;DHT22;1119;48.288;8.726;2023-05-17T04:55:39;6.20;99.90
2226;DHT22;1119;48.288;8.726;2023-05-17T04:58:28;6.20;99.90
2226;DHT22;1119;48.288;8.726;2023-05-17T05:01:18;6.20;99.90
2226;DHT22;1119;48.288;8.726;2023-05-17T05:04:07;6.20;99.90
2226;DHT22;1119;48.288;8.726;2023-05-17T05:07:01;6.30;99.90
2226;DHT22;1119;48.288;8.726;2023-05-17T05:09:48;6.40;99.90
2226;DHT22;1119;48.288;8.726;2023-05-17T05:12:37;6.40;99.90
2226;DHT22;1119;48.288;8.726;2023-05-17T05:15:25;6.50;99.90
2226;DHT22;1119;48.288;8.726;2023-05-17T05:18:17;6.50;99.90
2226;DHT22;1119;48.288;8.726;2023-05-17T05:21:05;6.50;99.90
2226;DHT22;1119;48.288;8.726;2023-05-17T05:23:55;6.60;99.90
2226;DHT22;1119;48.288;8.726;2023-05-17T05:26:42;6.70;99.90
2226;DHT22;1119;48.288;8.726;2023-05-17T05:29:32;6.80;99.90
2226;DHT22;1119;48.288;8.726;2023-05-17T05:32:20;6.80;99.90
2226;DHT22;1119;48.288;8.726;2023-05-17T05:35:08;6.90;99.90
2226;DHT22;1119;48.288;8.726;2023-05-17T05:37:56;6.90;99.90
2226;DHT22;1119;48.288;8.726;2023-05-17T05:40:46;6.90;99.90
2226;DHT22;1119;48.288;8.726;2023-05-17T05:43:34;7.00;99.90
2226;DHT22;1119;48.288;8.726;2023-05-17T05:46:23;7.10;99.90
2226;DHT22;1119;48.288;8.726;2023-05-17T05:49:10;7.20;99.90
2226;DHT22;1119;48.288;8.726;2023-05-17T05:51:58;7.20;99.90
2226;DHT22;1119;48.288;8.726;2023-05-17T05:54:48;7.20;99.90
2226;DHT22;1119;48.288;8.726;2023-05-17T05:57:39;7.30;99.90
2226;DHT22;1119;48.288;8.726;2023-05-17T06:00:26;7.30;99.90
2226;DHT22;1119;48.288;8.726;2023-05-17T06:03:14;7.30;99.90
2226;DHT22;1119;48.288;8.726;2023-05-17T06:06:02;7.40;99.90
2226;DHT22;1119;48.288;8.726;2023-05-17T06:08:50;7.30;99.90
2226;DHT22;1119;48.288;8.726;2023-05-17T06:11:38;7.40;99.90
2226;DHT22;1119;48.288;8.726;2023-05-17T06:14:27;7.40;99.90
2226;DHT22;1119;48.288;8.726;2023-05-17T06:17:15;7.50;99.90
2226;DHT22;1119;48.288;8.726;2023-05-17T06:20:02;7.50;99.90
2226;DHT22;1119;48.288;8.726;2023-05-17T06:22:51;7.60;99.90
2226;DHT22;1119;48.288;8.726;2023-05-17T06:25:39;7.70;99.90
2226;DHT22;1119;48.288;8.726;2023-05-17T06:28:27;8.10;99.90
2226;DHT22;1119;48.288;8.726;2023-05-17T06:31:16;8.80;99.90
2226;DHT22;1119;48.288;8.726;2023-05-17T06:34:04;9.70;99.90
2226;DHT22;1119;48.288;8.726;2023-05-17T06:36:51;10.20;98.60
2226;DHT22;1119;48.288;8.726;2023-05-17T06:39:39;11.00;97.90
2226;DHT22;1119;48.288;8.726;2023-05-17T06:42:27;11.70;97.00
2226;DHT22;1119;48.288;8.726;2023-05-17T06:45:15;12.30;94.20
2226;DHT22;1119;48.288;8.726;2023-05-17T06:48:04;12.60;92.90
2226;DHT22;1119;48.288;8.726;2023-05-17T06:50:52;12.50;91.20
2226;DHT22;1119;48.288;8.726;2023-05-17T06:53:40;12.50;90.90
2226;DHT22;1119;48.288;8.726;2023-05-17T06:56:27;12.40;90.20
2226;DHT22;1119;48.288;8.726;2023-05-17T06:59:15;12.10;90.90
2226;DHT22;1119;48.288;8.726;2023-05-17T07:02:03;12.20;91.30
2226;DHT22;1119;48.288;8.726;2023-05-17T07:04:52;12.30;91.10
2226;DHT22;1119;48.288;8.726;2023-05-17T07:07:39;12.60;91.10
2226;DHT22;1119;48.288;8.726;2023-05-17T07:10:27;12.60;90.40
2226;DHT22;1119;48.288;8.726;2023-05-17T07:13:15;12.30;90.80
2226;DHT22;1119;48.288;8.726;2023-05-17T07:16:02;12.00;90.30
2226;DHT22;1119;48.288;8.726;2023-05-17T07:18:50;12.00;90.40
2226;DHT22;1119;48.288;8.726;2023-05-17T07:21:39;12.10;90.70
2226;DHT22;1119;48.288;8.726;2023-05-17T07:24:27;12.20;90.80
2226;DHT22;1119;48.288;8.726;2023-05-17T07:27:15;12.40;89.30
2226;DHT22;1119;48.288;8.726;2023-05-17T07:30:03;12.70;89.50
2226;DHT22;1119;48.288;8.726;2023-05-17T07:32:52;12.80;90.20
2226;DHT22;1119;48.288;8.726;2023-05-17T07:35:39;12.60;87.10
2226;DHT22;1119;48.288;8.726;2023-05-17T07:38:28;12.40;87.60
2226;DHT22;1119;48.288;8.726;2023-05-17T07:41:16;12.30;87.00
2226;DHT22;1119;48.288;8.726;2023-05-17T07:44:07;12.00;87.40
2226;DHT22;1119;48.288;8.726;2023-05-17T07:46:55;12.10;90.00
2226;DHT22;1119;48.288;8.726;2023-05-17T07:49:42;12.30;89.00
2226;DHT22;1119;48.288;8.726;2023-05-17T07:52:30;12.20;88.80
2226;DHT22;1119;48.288;8.726;2023-05-17T07:55:19;12.20;90.00
2226;DHT22;1119;48.288;8.726;2023-05-17T07:58:08;12.20;89.30
2226;DHT22;1119;48.288;8.726;2023-05-17T08:00:56;12.20;87.00
2226;DHT22;1119;48.288;8.726;2023-05-17T08:03:45;12.10;88.30
2226;DHT22;1119;48.288;8.726;2023-05-17T08:06:33;12.10;89.10
2226;DHT22;1119;48.288;8.726;2023-05-17T08:09:21;12.00;87.70
2226;DHT22;1119;48.288;8.726;2023-05-17T08:12:10;12.00;86.80
2226;DHT22;1119;48.288;8.726;2023-05-17T08:14:58;11.70;85.50
2226;DHT22;1119;48.288;8.726;2023-05-17T08:17:46;11.50;87.70
2226;DHT22;1119;48.288;8.726;2023-05-17T08:20:33;11.20;88.20
2226;DHT22;1119;48.288;8.726;2023-05-17T08:23:21;10.90;88.40
2226;DHT22;1119;48.288;8.726;2023-05-17T08:26:08;11.00;90.10
2226;DHT22;1119;48.288;8.726;2023-05-17T08:29:00;11.10;90.10
2226;DHT22;1119;48.288;8.726;2023-05-17T08:31:48;11.10;87.80
2226;DHT22;1119;48.288;8.726;2023-05-17T08:34:36;11.00;89.80
2226;DHT22;1119;48.288;8.726;2023-05-17T08:37:24;10.90;89.40
2226;DHT22;1119;48.288;8.726;2023-05-17T08:40:12;10.90;89.70
2226;DHT22;1119;48.288;8.726;2023-05-17T08:43:05;11.10;90.10
2226;DHT22;1119;48.288;8.726;2023-05-17T08:45:55;11.30;90.80
2226;DHT22;1119;48.288;8.726;2023-05-17T08:48:44;11.30;86.10
2226;DHT22;1119;48.288;8.726;2023-05-17T08:51:34;11.10;88.90
2226;DHT22;1119;48.288;8.726;2023-05-17T08:54:22;11.20;87.90
2226;DHT22;1119;48.288;8.726;2023-05-17T08:57:10;11.50;90.20
2226;DHT22;1119;48.288;8.726;2023-05-17T08:59:59;11.90;88.90
2226;DHT22;1119;48.288;8.726;2023-05-17T09:02:48;12.00;85.00
2226;DHT22;1119;48.288;8.726;2023-05-17T09:05:36;12.00;85.60
2226;DHT22;1119;48.288;8.726;2023-05-17T09:08:24;11.80;84.50
2226;DHT22;1119;48.288;8.726;2023-05-17T09:11:23;11.80;85.70
2226;DHT22;1119;48.288;8.726;2023-05-17T09:14:14;11.70;83.50
2226;DHT22;1119;48.288;8.726;2023-05-17T09:17:03;11.60;84.10
2226;DHT22;1119;48.288;8.726;2023-05-17T09:19:52;11.60;84.10
2226;DHT22;1119;48.288;8.726;2023-05-17T09:22:41;11.60;83.90
2226;DHT22;1119;48.288;8.726;2023-05-17T09:25:30;11.30;86.80
2226;DHT22;1119;48.288;8.726;2023-05-17T09:28:18;11.40;84.80
2226;DHT22;1119;48.288;8.726;2023-05-17T09:31:06;11.60;85.30
2226;DHT22;1119;48.288;8.726;2023-05-17T09:33:54;11.60;85.60
2226;DHT22;1119;48.288;8.726;2023-05-17T09:36:47;11.40;85.50
2226;DHT22;1119;48.288;8.726;2023-05-17T09:39:34;11.10;87.20
2226;DHT22;1119;48.288;8.726;2023-05-17T09:42:25;11.10;88.70
2226;DHT22;1119;48.288;8.726;2023-05-17T09:45:20;11.20;86.00
2226;DHT22;1119;48.288;8.726;2023-05-17T09:48:12;11.20;87.20
2226;DHT22;1119;48.288;8.726;2023-05-17T09:51:00;11.10;88.40
2226;DHT22;1119;48.288;8.726;2023-05-17T09:53:53;11.40;86.50
2226;DHT22;1119;48.288;8.726;2023-05-17T09:56:40;11.60;84.30
2226;DHT22;1119;48.288;8.726;2023-05-17T09:59:28;11.40;85.70
2226;DHT22;1119;48.288;8.726;2023-05-17T10:02:20;11.40;86.70
2226;DHT22;1119;48.288;8.726;2023-05-17T10:05:10;11.30;89.60
2226;DHT22;1119;48.288;8.726;2023-05-17T10:07:59;11.20;89.40
2226;DHT22;1119;48.288;8.726;2023-05-17T10:10:48;10.90;88.60
2226;DHT22;1119;48.288;8.726;2023-05-17T10:13:45;10.70;89.30
2226;DHT22;1119;48.288;8.726;2023-05-17T10:16:36;10.50;90.10
2226;DHT22;1119;48.288;8.726;2023-05-17T10:19:25;10.50;91.40
2226;DHT22;1119;48.288;8.726;2023-05-17T10:22:23;10.50;91.10
2226;DHT22;1119;48.288;8.726;2023-05-17T10:25:17;10.50;91.50
2226;DHT22;1119;48.288;8.726;2023-05-17T10:28:06;10.50;91.90
2226;DHT22;1119;48.288;8.726;2023-05-17T10:30:54;10.60;90.90
2226;DHT22;1119;48.288;8.726;2023-05-17T10:33:44;10.70;91.90
2226;DHT22;1119;48.288;8.726;2023-05-17T10:36:33;11.00;91.60
2226;DHT22;1119;48.288;8.726;2023-05-17T10:39:21;11.20;90.90
2226;DHT22;1119;48.288;8.726;2023-05-17T10:42:11;11.30;91.00
2226;DHT22;1119;48.288;8.726;2023-05-17T10:45:01;11.40;90.20
2226;DHT22;1119;48.288;8.726;2023-05-17T10:47:50;11.30;89.60
2226;DHT22;1119;48.288;8.726;2023-05-17T10:50:38;11.10;88.60
2226;DHT22;1119;48.288;8.726;2023-05-17T10:53:27;11.00;89.00
2226;DHT22;1119;48.288;8.726;2023-05-17T10:56:14;11.20;90.50
2226;DHT22;1119;48.288;8.726;2023-05-17T10:59:20;11.30;90.20
2226;DHT22;1119;48.288;8.726;2023-05-17T11:02:10;11.60;89.20
2226;DHT22;1119;48.288;8.726;2023-05-17T11:04:58;11.60;85.70
2226;DHT22;1119;48.288;8.726;2023-05-17T11:07:47;11.70;85.90
2226;DHT22;1119;48.288;8.726;2023-05-17T11:10:35;11.60;87.50
2226;DHT22;1119;48.288;8.726;2023-05-17T11:13:25;11.40;88.80
2226;DHT22;1119;48.288;8.726;2023-05-17T11:16:14;11.10;87.10
2226;DHT22;1119;48.288;8.726;2023-05-17T11:19:08;11.10;88.70
2226;DHT22;1119;48.288;8.726;2023-05-17T11:21:57;11.00;87.50
2226;DHT22;1119;48.288;8.726;2023-05-17T11:24:47;11.10;88.90
2226;DHT22;1119;48.288;8.726;2023-05-17T11:27:42;11.30;88.80
2226;DHT22;1119;48.288;8.726;2023-05-17T11:30:31;11.60;89.10
2226;DHT22;1119;48.288;8.726;2023-05-17T11:33:19;11.80;86.90
2226;DHT22;1119;48.288;8.726;2023-05-17T11:36:25;11.90;88.90
2226;DHT22;1119;48.288;8.726;2023-05-17T11:39:14;12.10;88.60
2226;DHT22;1119;48.288;8.726;2023-05-17T11:42:04;12.20;90.00
2226;DHT22;1119;48.288;8.726;2023-05-17T11:44:55;12.40;87.30
2226;DHT22;1119;48.288;8.726;2023-05-17T11:47:47;12.20;85.30
2226;DHT22;1119;48.288;8.726;2023-05-17T11:50:35;12.10;85.20
2226;DHT22;1119;48.288;8.726;2023-05-17T11:53:25;12.00;86.80
2226;DHT22;1119;48.288;8.726;2023-05-17T11:56:13;11.90;83.10
2226;DHT22;1119;48.288;8.726;2023-05-17T11:59:02;11.70;84.90
2226;DHT22;1119;48.288;8.726;2023-05-17T12:01:51;11.80;85.10
2226;DHT22;1119;48.288;8.726;2023-05-17T12:04:38;12.00;85.50
2226;DHT22;1119;48.288;8.726;2023-05-17T12:07:26;12.20;85.00
2226;DHT22;1119;48.288;8.726;2023-05-17T12:10:16;12.10;82.70
2226;DHT22;1119;48.288;8.726;2023-05-17T12:13:04;12.00;85.50
2226;DHT22;1119;48.288;8.726;2023-05-17T12:16:01;11.90;84.50
2226;DHT22;1119;48.288;8.726;2023-05-17T12:18:51;11.80;84.60
2226;DHT22;1119;48.288;8.726;2023-05-17T12:21:38;11.80;85.80
2226;DHT22;1119;48.288;8.726;2023-05-17T12:24:35;12.10;84.80
2226;DHT22;1119;48.288;8.726;2023-05-17T12:27:25;12.50;82.20
2226;DHT22;1119;48.288;8.726;2023-05-17T12:30:14;12.50;82.60
2226;DHT22;1119;48.288;8.726;2023-05-17T12:33:02;12.40;83.00
2226;DHT22;1119;48.288;8.726;2023-05-17T12:35:50;12.10;83.90
2226;DHT22;1119;48.288;8.726;2023-05-17T12:38:40;12.00;85.60
2226;DHT22;1119;48.288;8.726;2023-05-17T12:41:28;11.60;86.70
2226;DHT22;1119;48.288;8.726;2023-05-17T12:44:18;11.50;87.70
2226;DHT22;1119;48.288;8.726;2023-05-17T12:47:08;11.40;88.70
2226;DHT22;1119;48.288;8.726;2023-05-17T12:49:56;11.40;89.30
2226;DHT22;1119;48.288;8.726;2023-05-17T12:52:48;11.30;85.90
2226;DHT22;1119;48.288;8.726;2023-05-17T12:55:36;11.40;85.10
2226;DHT22;1119;48.288;8.726;2023-05-17T12:58:24;11.60;86.80
2226;DHT22;1119;48.288;8.726;2023-05-17T13:01:13;11.90;89.20
2226;DHT22;1119;48.288;8.726;2023-05-17T13:04:01;12.10;84.70
2226;DHT22;1119;48.288;8.726;2023-05-17T13:06:49;12.40;84.00
2226;DHT22;1119;48.288;8.726;2023-05-17T13:09:45;12.60;86.60
2226;DHT22;1119;48.288;8.726;2023-05-17T13:12:33;12.50;86.60
2226;DHT22;1119;48.288;8.726;2023-05-17T13:15:27;12.30;84.90
2226;DHT22;1119;48.288;8.726;2023-05-17T13:18:17;12.00;86.50
2226;DHT22;1119;48.288;8.726;2023-05-17T13:21:07;12.00;87.40
2226;DHT22;1119;48.288;8.726;2023-05-17T13:24:22;12.20;89.30
2226;DHT22;1119;48.288;8.726;2023-05-17T13:27:28;12.40;86.30
2226;DHT22;1119;48.288;8.726;2023-05-17T13:30:15;12.60;87.60
2226;DHT22;1119;48.288;8.726;2023-05-17T13:33:03;12.80;86.00
2226;DHT22;1119;48.288;8.726;2023-05-17T13:35:52;12.90;84.20
2226;DHT22;1119;48.288;8.726;2023-05-17T13:38:40;12.80;83.60
2226;DHT22;1119;48.288;8.726;2023-05-17T13:41:28;12.50;85.10
2226;DHT22;1119;48.288;8.726;2023-05-17T13:44:16;12.20;85.40
2226;DHT22;1119;48.288;8.726;2023-05-17T13:47:04;12.00;84.70
2226;DHT22;1119;48.288;8.726;2023-05-17T13:49:51;11.90;85.00
2226;DHT22;1119;48.288;8.726;2023-05-17T13:52:41;11.80;87.20
2226;DHT22;1119;48.288;8.726;2023-05-17T13:55:29;11.80;88.70
2226;DHT22;1119;48.288;8.726;2023-05-17T13:58:18;11.90;87.00
2226;DHT22;1119;48.288;8.726;2023-05-17T14:01:05;12.10;86.60
2226;DHT22;1119;48.288;8.726;2023-05-17T14:03:53;12.30;87.50
2226;DHT22;1119;48.288;8.726;2023-05-17T14:06:42;12.50;86.30
2226;DHT22;1119;48.288;8.726;2023-05-17T14:09:32;12.50;83.80
2226;DHT22;1119;48.288;8.726;2023-05-17T14:12:21;12.20;84.20
2226;DHT22;1119;48.288;8.726;2023-05-17T14:15:10;12.00;87.80
2226;DHT22;1119;48.288;8.726;2023-05-17T14:17:58;11.70;86.90
2226;DHT22;1119;48.288;8.726;2023-05-17T14:20:46;11.70;90.20
2226;DHT22;1119;48.288;8.726;2023-05-17T14:23:34;11.70;87.40
2226;DHT22;1119;48.288;8.726;2023-05-17T14:26:23;11.80;88.30
2226;DHT22;1119;48.288;8.726;2023-05-17T14:29:11;12.00;88.60
2226;DHT22;1119;48.288;8.726;2023-05-17T14:31:59;12.10;86.30
2226;DHT22;1119;48.288;8.726;2023-05-17T14:34:46;12.10;87.50
2226;DHT22;1119;48.288;8.726;2023-05-17T14:37:34;12.00;84.20
2226;DHT22;1119;48.288;8.726;2023-05-17T14:40:22;11.80;84.30
2226;DHT22;1119;48.288;8.726;2023-05-17T14:43:11;11.60;85.90
2226;DHT22;1119;48.288;8.726;2023-05-17T14:45:59;11.50;86.60
2226;DHT22;1119;48.288;8.726;2023-05-17T14:48:47;11.60;86.60
2226;DHT22;1119;48.288;8.726;2023-05-17T14:51:33;11.50;86.50
2226;DHT22;1119;48.288;8.726;2023-05-17T14:54:20;11.50;87.20
2226;DHT22;1119;48.288;8.726;2023-05-17T14:57:10;11.60;87.40
2226;DHT22;1119;48.288;8.726;2023-05-17T15:00:00;11.80;86.60
2226;DHT22;1119;48.288;8.726;2023-05-17T15:02:48;12.10;88.50
2226;DHT22;1119;48.288;8.726;2023-05-17T15:05:36;12.40;84.60
2226;DHT22;1119;48.288;8.726;2023-05-17T15:08:25;12.50;85.40
2226;DHT22;1119;48.288;8.726;2023-05-17T15:11:13;12.50;85.70
2226;DHT22;1119;48.288;8.726;2023-05-17T15:14:01;12.30;84.00
2226;DHT22;1119;48.288;8.726;2023-05-17T15:16:51;11.90;85.70
2226;DHT22;1119;48.288;8.726;2023-05-17T15:19:38;11.70;86.30
2226;DHT22;1119;48.288;8.726;2023-05-17T15:22:26;11.50;85.50
2226;DHT22;1119;48.288;8.726;2023-05-17T15:25:15;11.40;87.20
2226;DHT22;1119;48.288;8.726;2023-05-17T15:28:03;11.40;88.20
2226;DHT22;1119;48.288;8.726;2023-05-17T15:30:59;11.50;87.20
2226;DHT22;1119;48.288;8.726;2023-05-17T15:33:48;11.50;86.50
2226;DHT22;1119;48.288;8.726;2023-05-17T15:36:40;11.60;88.20
2226;DHT22;1119;48.288;8.726;2023-05-17T15:39:27;11.60;87.10
2226;DHT22;1119;48.288;8.726;2023-05-17T15:42:15;11.70;88.80
2226;DHT22;1119;48.288;8.726;2023-05-17T15:45:03;11.90;85.70
2226;DHT22;1119;48.288;8.726;2023-05-17T15:47:51;12.00;84.60
2226;DHT22;1119;48.288;8.726;2023-05-17T15:50:42;12.00;86.20
2226;DHT22;1119;48.288;8.726;2023-05-17T15:53:30;12.10;86.90
2226;DHT22;1119;48.288;8.726;2023-05-17T15:56:19;11.90;85.30
2226;DHT22;1119;48.288;8.726;2023-05-17T15:59:11;11.70;86.00
2226;DHT22;1119;48.288;8.726;2023-05-17T16:02:01;11.30;87.70
2226;DHT22;1119;48.288;8.726;2023-05-17T16:04:49;11.30;90.00
2226;DHT22;1119;48.288;8.726;2023-05-17T16:07:38;11.20;90.10
2226;DHT22;1119;48.288;8.726;2023-05-17T16:10:26;11.20;89.60
2226;DHT22;1119;48.288;8.726;2023-05-17T16:13:13;11.20;90.00
2226;DHT22;1119;48.288;8.726;2023-05-17T16:16:01;11.30;90.30
2226;DHT22;1119;48.288;8.726;2023-05-17T16:18:49;11.40;90.10
2226;DHT22;1119;48.288;8.726;2023-05-17T16:21:37;11.50;88.60
2226;DHT22;1119;48.288;8.726;2023-05-17T16:24:26;11.60;86.80
2226;DHT22;1119;48.288;8.726;2023-05-17T16:27:14;11.60;87.20
2226;DHT22;1119;48.288;8.726;2023-05-17T16:30:02;11.60;87.40
2226;DHT22;1119;48.288;8.726;2023-05-17T16:32:50;11.50;86.40
2226;DHT22;1119;48.288;8.726;2023-05-17T16:35:37;11.40;87.20
2226;DHT22;1119;48.288;8.726;2023-05-17T16:38:25;11.40;87.90
2226;DHT22;1119;48.288;8.726;2023-05-17T16:41:14;11.40;87.00
2226;DHT22;1119;48.288;8.726;2023-05-17T16:44:01;11.30;87.20
2226;DHT22;1119;48.288;8.726;2023-05-17T16:46:49;11.30;87.80
2226;DHT22;1119;48.288;8.726;2023-05-17T16:49:39;11.30;88.10
2226;DHT22;1119;48.288;8.726;2023-05-17T16:52:27;11.20;87.90
2226;DHT22;1119;48.288;8.726;2023-05-17T16:55:16;11.20;88.50
2226;DHT22;1119;48.288;8.726;2023-05-17T16:58:05;11.30;89.10
2226;DHT22;1119;48.288;8.726;2023-05-17T17:00:52;11.40;89.40
2226;DHT22;1119;48.288;8.726;2023-05-17T17:03:40;11.30;89.50
2226;DHT22;1119;48.288;8.726;2023-05-17T17:06:27;11.20;89.20
2226;DHT22;1119;48.288;8.726;2023-05-17T17:09:16;11.20;90.40
2226;DHT22;1119;48.288;8.726;2023-05-17T17:12:04;11.20;90.50
2226;DHT22;1119;48.288;8.726;2023-05-17T17:14:53;11.20;89.80
2226;DHT22;1119;48.288;8.726;2023-05-17T17:17:41;11.00;89.50
2226;DHT22;1119;48.288;8.726;2023-05-17T17:20:30;10.90;89.40
2226;DHT22;1119;48.288;8.726;2023-05-17T17:23:18;10.90;90.00
2226;DHT22;1119;48.288;8.726;2023-05-17T17:26:06;10.90;90.10
2226;DHT22;1119;48.288;8.726;2023-05-17T17:28:56;10.80;90.60
2226;DHT22;1119;48.288;8.726;2023-05-17T17:31:45;10.80;90.30
2226;DHT22;1119;48.288;8.726;2023-05-17T17:34:37;10.90;91.30
2226;DHT22;1119;48.288;8.726;2023-05-17T17:37:25;10.90;91.40
2226;DHT22;1119;48.288;8.726;2023-05-17T17:40:16;10.80;91.60
2226;DHT22;1119;48.288;8.726;2023-05-17T17:43:04;10.80;90.80
2226;DHT22;1119;48.288;8.726;2023-05-17T17:45:51;10.80;90.50
2226;DHT22;1119;48.288;8.726;2023-05-17T17:48:40;10.60;90.70
2226;DHT22;1119;48.288;8.726;2023-05-17T17:51:28;10.50;91.00
2226;DHT22;1119;48.288;8.726;2023-05-17T17:54:16;10.60;91.60
2226;DHT22;1119;48.288;8.726;2023-05-17T17:57:04;10.60;91.40
2226;DHT22;1119;48.288;8.726;2023-05-17T17:59:52;10.50;91.80
2226;DHT22;1119;48.288;8.726;2023-05-17T18:02:40;10.50;91.70
2226;DHT22;1119;48.288;8.726;2023-05-17T18:05:29;10.40;91.10
2226;DHT22;1119;48.288;8.726;2023-05-17T18:08:16;10.40;91.00
2226;DHT22;1119;48.288;8.726;2023-05-17T18:11:04;10.20;90.70
2226;DHT22;1119;48.288;8.726;2023-05-17T18:13:52;10.00;90.20
2226;DHT22;1119;48.288;8.726;2023-05-17T18:16:40;10.00;90.30
2226;DHT22;1119;48.288;8.726;2023-05-17T18:19:28;10.00;90.50
2226;DHT22;1119;48.288;8.726;2023-05-17T18:22:18;9.90;91.00
2226;DHT22;1119;48.288;8.726;2023-05-17T18:25:06;9.90;90.80
2226;DHT22;1119;48.288;8.726;2023-05-17T18:27:54;9.90;91.10
2226;DHT22;1119;48.288;8.726;2023-05-17T18:30:42;9.90;90.70
2226;DHT22;1119;48.288;8.726;2023-05-17T18:33:30;9.90;90.90
2226;DHT22;1119;48.288;8.726;2023-05-17T18:36:19;9.90;90.70
2226;DHT22;1119;48.288;8.726;2023-05-17T18:39:08;9.90;90.70